Latest Coastal Weather Observations for Norfolk Island

IDN60701

Issued at 3:41 pm EST Wednesday 20 September 2017 (issued every 10 minutes, with the page automatically refreshed every 10 minutes)

About coastal observations | Map of coastal stations | Coastal observations for NSW | Marine services | Other Formats
Station Details ID: 200288 Name: NORFOLK ISLAND AERO Lat: -29.04 Lon: 167.94 Height: 111.73 m
Data from the previous 72 hours. | See also: Recent months at Norfolk Island
Date/Time
EST
Temp
°C
Wind Pressure Rain since
9am
mm
Weather Cloud Vis
km
Sea
Height
m
Swell
Dir  Spd
kts
Gust
kts
hPa Trend Height
m
Period
s
Dir
20/03:30pm 17.2 WNW 11 16 1015.1 - 0.0 - Clear 10 - - - -
20/03:00pm 18.1 WNW 12 15 1015.1 - 0.0 - Mostly clear 10 - - - -
20/02:30pm 17.7 WNW 11 15 1015.3 - 0.0 - Mostly clear 10 - - - -
20/02:00pm 18.5 WNW 12 15 1015.4 - 0.0 - Mostly cloudy 10 - - - -
20/01:30pm 18.4 W 11 15 1015.7 - 0.0 - Mostly clear 10 - - - -
20/01:00pm 18.3 WNW 12 15 1016.1 - 0.0 - Mostly clear 10 - - - -
20/12:30pm 18.8 WNW 11 15 1016.4 - 0.0 - Mostly clear 10 - - - -
20/12:00pm 18.9 W 10 14 1016.9 - 0.0 - Mostly clear 10 - - - -
20/11:30am 18.3 W 10 15 1017.3 - 0.0 - Mostly clear 10 - - - -
20/11:00am 18.3 WSW 11 15 1017.9 - 0.0 - Mostly cloudy 10 - - - -
20/10:30am 18.9 W 9 12 1018.1 - 0.0 - Mostly clear 10 - - - -
20/10:00am 18.6 WSW 8 11 1018.5 - 0.0 - Mostly clear 10 - - - -
20/09:30am 17.9 WSW 9 15 1018.8 - 0.0 - Partly cloudy 10 - - - -
20/09:00am 17.5 W 13 19 1018.9 - 0.0 - Partly cloudy 10 - - - -
20/08:30am 17.3 W 13 17 1019.0 - 0.0 - Partly cloudy 10 - - - -
20/08:00am 17.9 W 9 13 1019.3 - 0.0 - Cloudy 10 - - - -
20/07:30am 17.4 WSW 9 12 1019.4 - 0.0 - Cloudy 10 - - - -
20/07:00am 17.1 WSW 7 9 1019.3 - 0.0 - Cloudy 10 - - - -
20/06:30am 16.9 SW 8 10 1019.1 - 0.0 - Cloudy 10 - - - -
20/06:00am 16.3 WSW 6 7 1019.0 - 0.0 - Cloudy 10 - - - -
20/05:30am 15.9 WSW 6 9 1018.8 - 0.0 - Cloudy 10 - - - -
20/05:00am 15.5 SW 7 9 1018.7 - 0.0 - Cloudy 10 - - - -
20/04:30am 15.4 WSW 6 12 1018.6 - 0.0 - Partly cloudy 10 - - - -
20/04:00am 15.7 WSW 9 15 1018.5 - 0.0 - Cloudy 10 - - - -
20/03:30am 16.0 WSW 12 15 1018.4 - 0.0 - Cloudy 10 - - - -
20/03:00am 15.8 W 7 9 1018.1 - 0.0 - Cloudy 10 - - - -
20/02:30am 15.6 W 7 9 1017.9 - 0.0 - Cloudy 10 - - - -
20/02:00am 15.9 W 9 13 1017.7 - 0.0 - Cloudy 10 - - - -
20/01:30am 15.4 W 5 9 1017.9 - 0.0 - Cloudy 10 - - - -
20/01:00am 15.3 WSW 5 6 1017.8 - 0.0 - Cloudy 10 - - - -
20/12:30am 15.3 WSW 5 9 1018.0 - 0.0 - Cloudy 10 - - - -
20/12:00am 15.4 WSW 7 10 1018.5 - 0.0 - Cloudy 10 - - - -
 
Date/Time
EST
Temp
°C
Wind Pressure Rain since
9am
mm
Weather Cloud Vis
km
Sea
Height
m
Swell
Dir  Spd
kts
Gust
kts
hPa Trend Height
m
Period
s
Dir
19/11:30pm 15.3 WSW 7 9 1018.6 - 0.0 - Cloudy 10 - - - -
19/11:00pm 15.2 W 7 8 1018.5 - 0.0 - Cloudy 10 - - - -
19/10:30pm 15.3 W 6 9 1018.8 - 0.0 - Cloudy 10 - - - -
19/10:00pm 15.2 WSW 5 7 1019.1 - 0.0 - Cloudy 10 - - - -
19/09:30pm 15.2 SW 6 8 1019.4 - 0.0 - Cloudy 10 - - - -
19/09:00pm 15.5 SSW 7 11 1019.7 - 0.0 - Cloudy 10 - - - -
19/08:30pm 15.3 SW 4 6 1020.1 - 0.0 - Cloudy 10 - - - -
19/08:00pm 15.4 SW 9 15 1020.1 - 0.0 - Cloudy 10 - - - -
19/07:30pm 15.7 SSW 7 11 1019.9 - 0.0 - Cloudy 10 - - - -
19/07:00pm 15.4 SSW 5 6 1019.7 - 0.0 - Cloudy 10 - - - -
19/06:30pm 15.3 SSW 7 8 1019.6 - 0.0 - Cloudy 10 - - - -
19/06:00pm 15.3 SSW 9 11 1019.7 - 0.0 - Partly cloudy 10 - - - -
19/05:30pm 14.6 SSW 11 16 1019.7 - 0.0 - Partly cloudy 10 - - - -
19/05:00pm 15.8 WSW 9 14 1019.8 - 0.0 - Cloudy 10 - - - -
19/04:30pm 16.0 SW 9 13 1019.7 - 0.0 - Cloudy 10 - - - -
19/04:00pm 15.9 SW 10 16 1019.5 - 0.0 - Partly cloudy 10 - - - -
19/03:30pm 16.1 SW 11 17 1019.3 - 0.0 - Partly cloudy 10 - - - -
19/03:00pm 16.3 SSW 10 16 1019.0 - 0.0 - Partly cloudy 10 - - - -
19/02:30pm 16.6 SSW 11 16 1019.2 - 0.0 - Partly cloudy 10 - - - -
19/02:00pm 16.7 SW 10 15 1019.2 - 0.0 - Cloudy 10 - - - -
19/01:30pm 16.9 SSW 9 14 1019.3 - 0.0 - Cloudy 10 - - - -
19/01:00pm 17.3 SW 12 15 1019.4 - 0.0 - Cloudy 10 - - - -
19/12:30pm 17.5 SSW 11 15 1019.8 - 0.0 - Cloudy 10 - - - -
19/12:00pm 17.4 SW 10 16 1020.2 - 0.0 - Cloudy 10 - - - -
19/11:30am 17.1 SW 12 18 1020.7 - 0.0 - Cloudy 10 - - - -
19/11:00am 17.6 SW 12 18 1021.1 - 0.0 - Cloudy 10 - - - -
19/10:30am 17.3 SSW 11 15 1021.2 - 0.0 - Cloudy 10 - - - -
19/10:00am 17.5 SSW 12 18 1021.6 - 0.0 - Cloudy 10 - - - -
19/09:30am 16.9 SW 11 16 1021.6 - 0.0 - Cloudy 10 - - - -
19/09:00am 17.0 SW 12 18 1021.7 - 0.0 - Cloudy 10 - - - -
19/08:30am 16.6 SW 12 18 1021.9 - 0.0 - Cloudy 10 - - - -
19/08:00am 16.4 SSW 10 15 1021.8 - 0.0 - Cloudy 10 - - - -
19/07:30am 15.8 SSW 12 19 1021.9 - 0.0 - Partly cloudy 10 - - - -
19/07:00am 16.0 SW 11 17 1021.9 - 0.0 - Cloudy 10 - - - -
19/06:30am 15.7 SW 13 18 1021.9 - 0.0 - Cloudy 10 - - - -
19/06:00am 15.6 SSW 12 17 1021.8 - 0.0 - Cloudy 10 - - - -
19/05:30am 15.5 SSW 12 17 1021.5 - 0.0 - Cloudy 10 - - - -
19/05:00am 15.3 SSW 13 17 1021.2 - 0.0 - Mostly cloudy 10 - - - -
19/04:30am 15.3 SSW 10 16 1020.9 - 0.0 - Cloudy 10 - - - -
19/04:00am 14.6 WSW 10 15 1020.8 - 0.0 - Partly cloudy 10 - - - -
19/03:30am 14.3 SSW 14 21 1020.7 - 0.0 - Partly cloudy 10 - - - -
19/03:00am 14.5 SSW 11 16 1020.5 - 0.0 - Partly cloudy 10 - - - -
19/02:30am 14.5 SSW 10 17 1020.6 - 0.0 - Partly cloudy 10 - - - -
19/02:00am 14.2 SSW 12 17 1020.6 - 0.0 Drizzle Cloudy 10 - - - -
19/01:30am 14.1 SSW 13 17 1020.8 - 0.0 - Partly cloudy 10 - - - -
19/01:00am 14.4 SSW 9 14 1020.9 - 0.0 - Partly cloudy 10 - - - -
19/12:30am 14.7 SSW 11 17 1021.2 - 0.0 - Partly cloudy 10 - - - -
19/12:00am 14.7 SSW 14 20 1021.5 - 0.0 - Partly cloudy 10 - - - -
 
Date/Time
EST
Temp
°C
Wind Pressure Rain since
9am
mm
Weather Cloud Vis
km
Sea
Height
m
Swell
Dir  Spd
kts
Gust
kts
hPa Trend Height
m
Period
s
Dir
18/11:30pm 14.9 SSW 11 14 1021.6 - 0.0 - Partly cloudy 10 - - - -
18/11:00pm 14.6 SSW 10 15 1021.8 - 0.0 - Mostly cloudy 10 - - - -
18/10:30pm 14.7 SSW 13 20 1021.8 - 0.0 - Partly cloudy 10 - - - -
18/10:00pm 14.5 S 9 16 1021.7 - 0.0 - Partly cloudy 10 - - - -
18/09:30pm 15.3 SSW 11 18 1021.5 - 0.0 - Partly cloudy 10 - - - -
18/09:00pm 15.2 SSW 12 18 1021.5 - 0.0 - Partly cloudy 10 - - - -
18/08:30pm 14.9 SSW 9 15 1021.5 - 0.0 - Partly cloudy 10 - - - -
18/08:00pm 14.9 SW 13 20 1021.7 - 0.0 - Cloudy 10 - - - -
18/07:30pm 14.9 SSW 14 23 1021.8 - 0.0 - Partly cloudy 10 - - - -
18/07:00pm 15.1 SSW 9 16 1021.8 - 0.0 - Partly cloudy 10 - - - -
18/06:30pm 15.3 SW 13 22 1021.9 - 0.0 - Partly cloudy 10 - - - -
18/06:00pm 15.2 SW 14 20 1021.7 - 0.0 - Partly cloudy 10 - - - -
18/05:30pm 15.8 SW 16 24 1021.4 - 0.0 - Partly cloudy 10 - - - -
18/05:14pm 15.6 SSW 16 26 1021.3 - 0.0 - Partly cloudy 10 - - - -
18/05:00pm 15.8 SW 14 19 1021.2 - 0.0 - Cloudy 10 - - - -
18/04:30pm 15.8 SW 14 21 1021.0 - 0.0 - Partly cloudy 10 - - - -
18/04:00pm 16.1 SW 15 21 1020.6 - 0.0 - Partly cloudy 10 - - - -
18/03:30pm 16.5 SW 16 22 1020.5 - 0.0 - Partly cloudy 10 - - - -
18/03:00pm 16.7 WSW 16 21 1020.3 - 0.0 - Partly cloudy 10 - - - -
18/02:30pm 16.7 SW 15 22 1020.5 - 0.0 - Partly cloudy 10 - - - -
18/02:00pm 16.7 SW 14 22 1020.5 - 0.0 - Mostly cloudy 10 - - - -
18/01:30pm 17.3 SW 16 21 1020.7 - 0.0 - Partly cloudy 10 - - - -
18/01:15pm 17.1 SW 15 25 1020.8 - 0.0 - Partly cloudy 10 - - - -
18/01:00pm 17.6 SW 16 21 1021.0 - 0.0 - Partly cloudy 10 - - - -
18/12:30pm 18.2 SW 17 23 1021.2 - 0.0 - Mostly clear 10 - - - -
18/12:00pm 17.2 SW 15 20 1021.6 - 0.0 - Mostly clear 10 - - - -
18/11:30am 16.5 SW 16 21 1021.8 - 0.0 - Partly cloudy 10 - - - -
18/11:00am 17.5 SW 15 21 1021.9 - 0.0 - Cloudy 10 - - - -
18/10:30am 17.1 SW 12 16 1022.4 - 0.0 - Mostly clear 10 - - - -
18/10:00am 16.5 WSW 10 14 1022.7 - 0.0 - Mostly clear 10 - - - -
18/09:30am 16.0 WSW 15 25 1022.9 - 0.0 Showers Mostly clear 10 - - - -
18/09:22am 15.3 SW 15 25 1022.8 - 0.0 Showers Mostly clear 10 - - - -
18/09:00am 16.3 SW 12 19 1022.9 - 0.0 - Mostly clear 10 - - - -
18/08:30am 16.0 SW 15 21 1023.0 - 0.0 - Mostly clear 10 - - - -
18/08:00am 16.8 SW 11 17 1023.1 - 0.0 - Mostly clear 10 - - - -
18/07:30am 15.8 SW 11 17 1023.2 - 0.0 - Mostly clear 10 - - - -
18/07:02am 14.5 W 11 17 1023.3 - 0.0 - Partly cloudy 10 - - - -
18/07:00am 14.4 W 12 17 1023.3 - 0.0 - Partly cloudy 10 - - - -
18/06:40am 13.9 SW 15 21 1023.1 - 0.0 - Partly cloudy 6 - - - -
18/06:30am 15.9 SSW 13 18 1023.0 - 0.0 - Partly cloudy 10 - - - -
18/06:00am 16.4 SW 11 16 1022.7 - 0.0 - Partly cloudy 10 - - - -
18/05:30am 15.8 WSW 11 15 1022.5 - 0.0 - Partly cloudy 10 - - - -
18/05:00am 15.3 SW 11 17 1022.4 - 0.0 - Mostly clear 10 - - - -
18/04:30am 15.2 SW 11 15 1022.0 - 0.0 - Partly cloudy 10 - - - -
18/04:00am 15.3 SW 12 17 1021.8 - 0.0 - Partly cloudy 10 - - - -
18/03:30am 15.8 SW 12 18 1021.5 - 0.0 - Cloudy 10 - - - -
18/03:00am 16.0 SW 11 15 1021.4 - 0.0 - Cloudy 10 - - - -
18/02:30am 16.1 SW 11 18 1021.2 - 0.0 - Cloudy 10 - - - -
18/02:00am 16.1 SW 12 16 1021.5 - 0.0 - Cloudy 10 - - - -
18/01:30am 16.2 SW 12 16 1021.6 - 0.0 - Partly cloudy 10 - - - -
18/01:00am 15.5 SW 7 10 1021.7 - 0.0 - Partly cloudy 10 - - - -
18/12:30am 16.0 SSW 12 17 1021.8 - 0.0 - Partly cloudy 10 - - - -
18/12:03am 15.8 SSW 10 17 1021.9 - 0.0 - Partly cloudy 10 - - - -
18/12:00am 15.7 SSW 11 17 1021.8 - 0.0 - Partly cloudy 10 - - - -
 
Date/Time
EST
Temp
°C
Wind Pressure Rain since
9am
mm
Weather Cloud Vis
km
Sea
Height
m
Swell
Dir  Spd
kts
Gust
kts
hPa Trend Height
m
Period
s
Dir
17/11:42pm 15.9 SW 12 17 1021.9 - 0.0 - Partly cloudy 10 - - - -
17/11:41pm 16.0 SW 12 17 1022.0 - 0.0 - Partly cloudy 10 - - - -
17/11:30pm 16.0 SW 11 17 1021.9 - 0.0 - Partly cloudy 10 - - - -
17/11:16pm 16.1 SW 14 19 1021.9 - 0.0 - Partly cloudy 10 - - - -
17/11:14pm 16.1 SW 14 19 1021.9 - 0.0 - Partly cloudy 10 - - - -
17/11:00pm 16.2 SW 13 19 1021.7 - 0.0 Showers Cloudy 10 - - - -
17/10:59pm 16.2 SW 13 19 1021.7 - 0.0 - Partly cloudy 10 - - - -
17/10:30pm 16.5 WSW 13 16 1021.7 - 0.0 - Partly cloudy 10 - - - -
17/10:00pm 16.8 WSW 14 19 1021.8 - 0.0 - Partly cloudy 10 - - - -
17/09:30pm 17.1 W 11 17 1021.8 - 0.0 - Partly cloudy 10 - - - -
17/09:00pm 16.4 WSW 13 18 1022.2 - 0.0 - Partly cloudy 10 - - - -
17/08:30pm 16.9 WSW 14 20 1022.2 - 0.0 - Partly cloudy 10 - - - -
17/08:00pm 17.2 W 12 17 1022.2 - 0.0 - Cloudy 10 - - - -
17/07:30pm 17.3 W 13 18 1022.1 - 0.0 - Partly cloudy 10 - - - -
17/07:00pm 17.5 W 13 18 1022.2 - 0.0 - Partly cloudy 10 - - - -
17/06:30pm 17.6 W 12 17 1022.3 - 0.0 - Partly cloudy 10 - - - -
17/06:00pm 17.6 W 13 19 1022.1 - 0.0 - Partly cloudy 10 - - - -
17/05:30pm 17.7 W 15 20 1021.7 - 0.0 - Partly cloudy 10 - - - -
17/05:00pm 17.7 WNW 14 18 1021.4 - 0.0 - Cloudy 10 - - - -
17/04:30pm 17.8 W 16 20 1021.1 - 0.0 - Partly cloudy 10 - - - -
17/04:00pm 18.1 WNW 15 22 1021.0 - 0.0 - Partly cloudy 10 - - - -
17/03:30pm 18.6 WNW 15 19 1020.5 - 0.0 - - 10 - - - -
17/03:00pm 18.9 WNW 16 22 1020.6 - 0.0 - Partly cloudy 10 - - - -
17/02:30pm 19.0 WNW 16 22 1020.6 - 0.0 - Partly cloudy 10 - - - -

Other Formats:

Comma delimited format used in spreadsheet applications
http://www.bom.gov.au/fwo/IDN60701/IDN60701.94996.axf

JavaScript Object Notation format (JSON) in row-major order
http://www.bom.gov.au/fwo/IDN60701/IDN60701.94996.json